Time;durP1;ratioP1;P1;durP2;ratioP2;P2;SDS_P1;SDS_P2;PMS_P1;PMS_P2;Temp;Humidity;BMP_temperature;BMP_pressure;BME280_temperature;BME280_humidity;BME280_pressure;Samples;Min_cycle;Max_cycle;Signal;HPM_P1;HPM_P2
2024/03/23 00:00:27;;;;;;;10.07;5.72;;;;;;;;;;5844640;28;20409;-73
2024/03/23 00:03:18;;;;;;;11.23;5.97;;;;;;;;;;5844301;28;20060;-73
2024/03/23 00:06:09;;;;;;;8.50;6.63;;;;;;;;;;5844305;28;20099;-73
2024/03/23 00:09:01;;;;;;;6.05;5.13;;;;;;;;;;5844717;28;20057;-73
2024/03/23 00:11:52;;;;;;;6.97;5.85;;;;;;;;;;5844737;28;20061;-73
2024/03/23 00:14:43;;;;;;;6.07;5.13;;;;;;;;;;5844774;28;20099;-73
2024/03/23 00:17:35;;;;;;;9.80;5.78;;;;;;;;;;5848787;28;20057;-73
2024/03/23 00:20:26;;;;;;;9.20;5.10;;;;;;;;;;5848645;28;20473;-73
2024/03/23 00:23:17;;;;;;;11.05;6.05;;;;;;;;;;5832440;28;20465;-73
2024/03/23 00:26:09;;;;;;;13.00;6.10;;;;;;;;;;5848864;28;20052;-73
2024/03/23 00:29:00;;;;;;;9.30;6.53;;;;;;;;;;5849055;28;20499;-73
2024/03/23 00:31:51;;;;;;;7.65;5.40;;;;;;;;;;5848607;28;20099;-73
2024/03/23 00:34:42;;;;;;;9.55;5.60;;;;;;;;;;5848468;28;20049;-73
2024/03/23 00:37:34;;;;;;;6.20;5.43;;;;;;;;;;5848253;28;20057;-72
2024/03/23 00:40:25;;;;;;;11.52;6.22;;;;;;;;;;5848266;28;20446;-73
2024/03/23 00:43:17;;;;;;;8.93;5.75;;;;;;;;;;5848188;28;20107;-72
2024/03/23 00:46:08;;;;;;;15.38;7.28;;;;;;;;;;5847895;28;20088;-73
2024/03/23 00:48:59;;;;;;;8.65;6.85;;;;;;;;;;5848468;28;20053;-73
2024/03/23 00:51:50;;;;;;;11.20;5.70;;;;;;;;;;5831892;28;20450;-73
2024/03/23 00:54:40;;;;;;;9.75;7.53;;;;;;;;;;5847848;28;20056;-73
2024/03/23 00:57:30;;;;;;;13.30;7.57;;;;;;;;;;5848055;28;20438;-73
2024/03/23 01:00:20;;;;;;;9.30;6.72;;;;;;;;;;5864205;28;20049;-73
2024/03/23 01:03:10;;;;;;;10.52;6.30;;;;;;;;;;5842231;28;20061;-73
2024/03/23 01:06:01;;;;;;;11.90;6.63;;;;;;;;;;5864631;28;20506;-73
2024/03/23 01:08:51;;;;;;;9.25;7.07;;;;;;;;;;5864276;28;20046;-73
2024/03/23 01:11:40;;;;;;;9.43;6.43;;;;;;;;;;5847680;28;20041;-73
2024/03/23 01:14:30;;;;;;;7.93;6.50;;;;;;;;;;5864146;28;20502;-73
2024/03/23 01:17:20;;;;;;;12.90;7.05;;;;;;;;;;5847761;28;20073;-73
2024/03/23 01:20:10;;;;;;;13.93;8.45;;;;;;;;;;5863721;28;20072;-72
2024/03/23 01:23:00;;;;;;;7.03;5.80;;;;;;;;;;5864062;28;20045;-73
2024/03/23 01:25:53;;;;;;;11.27;6.80;;;;;;;;;;5831002;28;20100;-73
2024/03/23 01:28:43;;;;;;;8.27;5.25;;;;;;;;;;5847125;28;20053;-73
2024/03/23 01:31:33;;;;;;;11.30;6.63;;;;;;;;;;5847318;28;20541;-72
2024/03/23 01:34:24;;;;;;;7.10;6.07;;;;;;;;;;5847048;28;20052;-73
2024/03/23 01:37:14;;;;;;;7.03;6.15;;;;;;;;;;5863737;28;20568;-73
2024/03/23 01:40:04;;;;;;;15.88;6.65;;;;;;;;;;5846796;28;20508;-72
2024/03/23 01:43:08;;;;;;;7.18;6.10;;;;;;;;;;5863709;28;20054;-73
2024/03/23 01:45:57;;;;;;;6.20;5.55;;;;;;;;;;5863484;28;20054;-73
2024/03/23 01:48:48;;;;;;;20.85;8.63;;;;;;;;;;5846374;28;20408;-73
2024/03/23 01:51:38;;;;;;;12.38;7.88;;;;;;;;;;5863157;28;20057;-73
2024/03/23 01:54:29;;;;;;;15.52;8.07;;;;;;;;;;5863236;28;20056;-73
2024/03/23 01:57:20;;;;;;;13.88;8.75;;;;;;;;;;5846768;28;20053;-73
2024/03/23 02:00:12;;;;;;;14.60;8.02;;;;;;;;;;5862953;28;20053;-73
2024/03/23 02:03:01;;;;;;;10.45;7.07;;;;;;;;;;5846614;28;20418;-72
2024/03/23 02:05:53;;;;;;;12.93;8.80;;;;;;;;;;5846775;28;20049;-73
2024/03/23 02:08:44;;;;;;;11.50;6.63;;;;;;;;;;5846503;28;20045;-73
2024/03/23 02:11:33;;;;;;;9.45;7.97;;;;;;;;;;5845849;28;20049;-73
2024/03/23 02:14:23;;;;;;;7.38;6.32;;;;;;;;;;5846295;28;20048;-72
2024/03/23 02:17:13;;;;;;;21.35;7.97;;;;;;;;;;5846130;28;20099;-72
2024/03/23 02:20:06;;;;;;;11.02;7.60;;;;;;;;;;5846235;28;20426;-72
2024/03/23 02:22:55;;;;;;;18.83;8.23;;;;;;;;;;5846382;28;20060;-73
2024/03/23 02:25:45;;;;;;;10.70;7.25;;;;;;;;;;5845890;28;20046;-73
2024/03/23 02:28:35;;;;;;;8.57;7.50;;;;;;;;;;5862354;28;20070;-73
2024/03/23 02:31:25;;;;;;;7.43;6.68;;;;;;;;;;5845863;28;20049;-73
2024/03/23 02:34:14;;;;;;;14.68;7.43;;;;;;;;;;5862432;28;20107;-73
2024/03/23 02:37:11;;;;;;;13.02;7.75;;;;;;;;;;5845195;28;20049;-72
2024/03/23 02:40:01;;;;;;;9.20;6.22;;;;;;;;;;5862117;28;20091;-72
2024/03/23 02:42:51;;;;;;;11.50;6.35;;;;;;;;;;5845959;28;20057;-73
2024/03/23 02:45:41;;;;;;;11.10;7.32;;;;;;;;;;5861985;28;20045;-73
2024/03/23 02:48:31;;;;;;;12.00;7.28;;;;;;;;;;5845681;28;20045;-72
2024/03/23 02:51:20;;;;;;;16.35;8.35;;;;;;;;;;5861808;28;20060;-73
2024/03/23 02:54:10;;;;;;;6.63;5.88;;;;;;;;;;5845701;28;20049;-73
2024/03/23 02:57:00;;;;;;;12.55;8.65;;;;;;;;;;5862338;28;20099;-73
2024/03/23 02:59:50;;;;;;;13.35;7.88;;;;;;;;;;5862015;28;20593;-72
2024/03/23 03:02:40;;;;;;;9.95;6.57;;;;;;;;;;5861457;28;20053;-73
2024/03/23 03:05:29;;;;;;;9.63;7.20;;;;;;;;;;5845258;28;20057;-73
2024/03/23 03:08:19;;;;;;;15.05;7.03;;;;;;;;;;5861389;28;20438;-73
2024/03/23 03:11:09;;;;;;;7.55;6.85;;;;;;;;;;5861288;28;20042;-73
2024/03/23 03:14:00;;;;;;;14.02;7.38;;;;;;;;;;5845571;28;20045;-72
2024/03/23 03:16:49;;;;;;;10.77;6.00;;;;;;;;;;5861345;28;20045;-73
2024/03/23 03:19:39;;;;;;;8.18;6.18;;;;;;;;;;5844707;28;20517;-73
2024/03/23 03:22:29;;;;;;;10.10;5.80;;;;;;;;;;5861398;28;20045;-73
2024/03/23 03:25:19;;;;;;;12.40;7.57;;;;;;;;;;5844615;28;20049;-72
2024/03/23 03:28:09;;;;;;;20.67;7.97;;;;;;;;;;5861106;28;20103;-72
2024/03/23 03:31:01;;;;;;;8.77;6.85;;;;;;;;;;5861722;28;20133;-73
2024/03/23 03:33:51;;;;;;;9.30;6.57;;;;;;;;;;5861205;28;20045;-72
2024/03/23 03:36:41;;;;;;;8.52;6.35;;;;;;;;;;5844777;28;20041;-72
2024/03/23 03:39:31;;;;;;;10.20;7.03;;;;;;;;;;5861140;28;20045;-72
2024/03/23 03:42:20;;;;;;;13.30;6.65;;;;;;;;;;5861204;28;20053;-72
2024/03/23 03:45:10;;;;;;;7.30;6.47;;;;;;;;;;5844571;28;20046;-72
2024/03/23 03:48:00;;;;;;;11.68;7.57;;;;;;;;;;5844820;28;20042;-73
2024/03/23 03:50:50;;;;;;;10.57;6.72;;;;;;;;;;5847237;28;20049;-72
2024/03/23 03:53:40;;;;;;;6.80;6.10;;;;;;;;;;5865802;28;20053;-72
2024/03/23 03:56:30;;;;;;;7.53;5.45;;;;;;;;;;5865518;28;20072;-73
2024/03/23 03:59:20;;;;;;;10.43;7.53;;;;;;;;;;5865556;28;20054;-72
2024/03/23 04:02:10;;;;;;;17.17;6.70;;;;;;;;;;5865518;28;20098;-72
2024/03/23 04:04:59;;;;;;;10.60;7.53;;;;;;;;;;5849479;28;20045;-72
2024/03/23 04:07:49;;;;;;;10.82;6.30;;;;;;;;;;5848702;28;20407;-72
2024/03/23 04:10:39;;;;;;;11.10;6.82;;;;;;;;;;5848649;28;20049;-72
2024/03/23 04:13:29;;;;;;;7.50;6.32;;;;;;;;;;5865250;28;20056;-72
2024/03/23 04:16:27;;;;;;;13.73;7.82;;;;;;;;;;5848704;28;20506;-72
2024/03/23 04:19:17;;;;;;;14.57;6.90;;;;;;;;;;5848658;28;20060;-72
2024/03/23 04:22:08;;;;;;;13.88;6.47;;;;;;;;;;5848468;28;20041;-72
2024/03/23 04:24:58;;;;;;;12.13;7.00;;;;;;;;;;5865654;28;20049;-72
2024/03/23 04:27:47;;;;;;;7.15;6.05;;;;;;;;;;5848276;28;20094;-72
2024/03/23 04:30:37;;;;;;;8.48;6.07;;;;;;;;;;5864883;28;20107;-72
2024/03/23 04:33:27;;;;;;;8.48;6.85;;;;;;;;;;5848515;28;20045;-72
2024/03/23 04:36:16;;;;;;;7.80;6.53;;;;;;;;;;5848316;28;20053;-72
2024/03/23 04:39:08;;;;;;;12.35;6.85;;;;;;;;;;5864800;28;20478;-72
2024/03/23 04:41:58;;;;;;;9.82;6.95;;;;;;;;;;5832299;28;20676;-72
2024/03/23 04:44:48;;;;;;;15.93;7.18;;;;;;;;;;5848229;28;20046;-72
2024/03/23 04:47:38;;;;;;;7.65;6.55;;;;;;;;;;5848095;28;20452;-72
2024/03/23 04:50:28;;;;;;;10.88;6.93;;;;;;;;;;5831601;28;20045;-72
2024/03/23 04:53:17;;;;;;;8.70;6.97;;;;;;;;;;5847931;28;20088;-72
2024/03/23 04:56:07;;;;;;;9.30;6.78;;;;;;;;;;5847719;28;20037;-72
2024/03/23 04:59:01;;;;;;;10.82;6.07;;;;;;;;;;5848232;28;20128;-72
2024/03/23 05:01:51;;;;;;;13.55;8.43;;;;;;;;;;5863855;28;20049;-72
2024/03/23 05:04:42;;;;;;;7.82;4.97;;;;;;;;;;5847647;28;20100;-72
2024/03/23 05:07:31;;;;;;;10.38;6.93;;;;;;;;;;5847889;28;20044;-72
2024/03/23 05:10:21;;;;;;;8.82;6.90;;;;;;;;;;5847395;28;20050;-73
2024/03/23 05:13:11;;;;;;;10.50;6.05;;;;;;;;;;5831403;28;20536;-72
2024/03/23 05:16:01;;;;;;;11.10;7.43;;;;;;;;;;5863902;28;20132;-72
2024/03/23 05:18:51;;;;;;;9.88;7.45;;;;;;;;;;5864367;28;20049;-72
2024/03/23 05:21:41;;;;;;;8.25;5.47;;;;;;;;;;5863783;28;20053;-72
2024/03/23 05:24:30;;;;;;;15.10;6.30;;;;;;;;;;5847169;28;20399;-72
2024/03/23 05:27:20;;;;;;;11.00;7.32;;;;;;;;;;5863891;28;20049;-72
2024/03/23 05:30:10;;;;;;;9.70;6.72;;;;;;;;;;5846994;28;20046;-72
2024/03/23 05:33:00;;;;;;;8.52;6.53;;;;;;;;;;5847934;28;20774;-72
2024/03/23 05:36:01;;;;;;;17.55;5.43;;;;;;;;;;5847182;28;20060;-72
2024/03/23 05:38:51;;;;;;;6.65;5.43;;;;;;;;;;5847206;28;20055;-72
2024/03/23 05:41:41;;;;;;;9.90;6.22;;;;;;;;;;5846739;28;20072;-72
2024/03/23 05:44:31;;;;;;;10.35;6.15;;;;;;;;;;5846778;28;20049;-72
2024/03/23 05:47:21;;;;;;;9.20;6.60;;;;;;;;;;5862956;28;20104;-72
2024/03/23 05:50:12;;;;;;;9.63;7.40;;;;;;;;;;5862945;28;20042;-72
2024/03/23 05:53:04;;;;;;;10.50;7.85;;;;;;;;;;5863379;28;20053;-72
2024/03/23 05:56:03;;;;;;;17.17;7.28;;;;;;;;;;5863350;28;20050;-72
2024/03/23 05:58:53;;;;;;;14.30;7.30;;;;;;;;;;5846546;28;20423;-72
2024/03/23 06:01:43;;;;;;;9.13;7.32;;;;;;;;;;5846297;28;20057;-72
2024/03/23 06:04:33;;;;;;;10.65;7.35;;;;;;;;;;5846344;28;20118;-72
2024/03/23 06:07:22;;;;;;;8.00;6.20;;;;;;;;;;5862770;28;20053;-72
2024/03/23 06:10:12;;;;;;;12.23;6.55;;;;;;;;;;5846255;28;20068;-72
2024/03/23 06:13:02;;;;;;;10.95;7.75;;;;;;;;;;5845657;28;20045;-72
2024/03/23 06:15:52;;;;;;;7.28;6.53;;;;;;;;;;5861739;28;20041;-72
2024/03/23 06:18:41;;;;;;;23.67;9.18;;;;;;;;;;5846084;28;20129;-72
2024/03/23 06:21:31;;;;;;;12.77;8.60;;;;;;;;;;5845806;28;20064;-72
2024/03/23 06:24:24;;;;;;;11.52;6.63;;;;;;;;;;5845920;28;20049;-72
2024/03/23 06:27:14;;;;;;;13.00;7.55;;;;;;;;;;5862326;28;20087;-72
2024/03/23 06:30:05;;;;;;;11.32;6.75;;;;;;;;;;5845826;28;20128;-72
2024/03/23 06:32:55;;;;;;;8.43;6.63;;;;;;;;;;5862682;28;20054;-72
2024/03/23 06:35:52;;;;;;;10.43;6.60;;;;;;;;;;5862074;28;20129;-72
2024/03/23 06:38:41;;;;;;;8.55;6.13;;;;;;;;;;5862029;28;20079;-72
2024/03/23 06:41:31;;;;;;;12.05;9.20;;;;;;;;;;5845538;28;20045;-72
2024/03/23 06:44:21;;;;;;;11.25;6.55;;;;;;;;;;5845697;28;20411;-72
2024/03/23 06:47:11;;;;;;;12.95;7.03;;;;;;;;;;5845402;28;20144;-72
2024/03/23 06:50:03;;;;;;;8.57;6.70;;;;;;;;;;5829187;28;20073;-72
2024/03/23 06:52:53;;;;;;;19.17;6.43;;;;;;;;;;5862184;28;20045;-72
2024/03/23 06:55:51;;;;;;;7.90;6.47;;;;;;;;;;5845122;28;20461;-71
2024/03/23 06:58:41;;;;;;;8.07;5.45;;;;;;;;;;5861873;28;20049;-71
2024/03/23 07:01:31;;;;;;;8.15;6.30;;;;;;;;;;5861463;28;20103;-71
2024/03/23 07:04:21;;;;;;;11.27;7.32;;;;;;;;;;5861637;28;20499;-71
2024/03/23 07:07:11;;;;;;;12.82;6.95;;;;;;;;;;5845248;28;20053;-71
2024/03/23 07:10:01;;;;;;;9.27;5.60;;;;;;;;;;5845217;28;20049;-72
2024/03/23 07:12:51;;;;;;;9.07;6.15;;;;;;;;;;5845412;28;20103;-72
2024/03/23 07:15:41;;;;;;;18.92;6.80;;;;;;;;;;5844683;28;20053;-72
2024/03/23 07:18:30;;;;;;;8.75;6.70;;;;;;;;;;5861435;28;20069;-72
2024/03/23 07:21:20;;;;;;;14.45;7.07;;;;;;;;;;5844695;28;20223;-72
2024/03/23 07:24:10;;;;;;;41.90;6.53;;;;;;;;;;5844582;28;20072;-72
2024/03/23 07:27:00;;;;;;;7.63;6.25;;;;;;;;;;5845079;28;20068;-72
2024/03/23 07:29:50;;;;;;;10.35;6.05;;;;;;;;;;5844659;28;20049;-73
2024/03/23 07:32:40;;;;;;;12.98;5.93;;;;;;;;;;5861130;28;20053;-72
2024/03/23 07:35:29;;;;;;;8.25;5.38;;;;;;;;;;5844345;28;20057;-72
2024/03/23 07:38:19;;;;;;;8.40;6.10;;;;;;;;;;5861280;28;20525;-72
2024/03/23 07:41:17;;;;;;;8.38;4.30;;;;;;;;;;5861102;28;20454;-73
2024/03/23 07:44:06;;;;;;;10.55;5.45;;;;;;;;;;5861067;28;20050;-72
2024/03/23 07:46:56;;;;;;;9.82;5.95;;;;;;;;;;5845000;28;20060;-72
2024/03/23 07:49:46;;;;;;;8.48;6.22;;;;;;;;;;5828308;28;20041;-73
2024/03/23 07:52:36;;;;;;;15.00;7.13;;;;;;;;;;5828555;28;20045;-73
2024/03/23 07:55:26;;;;;;;32.70;8.98;;;;;;;;;;5860941;28;20621;-73
2024/03/23 07:58:16;;;;;;;16.55;8.10;;;;;;;;;;5844500;28;20499;-73
2024/03/23 08:01:14;;;;;;;11.45;6.63;;;;;;;;;;5844462;28;20386;-73
2024/03/23 08:04:04;;;;;;;7.57;5.10;;;;;;;;;;5861243;28;20063;-72
2024/03/23 08:06:53;;;;;;;17.30;6.82;;;;;;;;;;5844766;28;20452;-73
2024/03/23 08:09:44;;;;;;;14.45;6.40;;;;;;;;;;5860576;28;20054;-73
2024/03/23 08:12:33;;;;;;;10.77;5.25;;;;;;;;;;5860997;28;20041;-73
2024/03/23 08:15:23;;;;;;;5.55;3.60;;;;;;;;;;5844268;28;20501;-73
2024/03/23 08:18:15;;;;;;;10.95;4.95;;;;;;;;;;5860804;28;20438;-73
2024/03/23 08:21:06;;;;;;;7.55;4.68;;;;;;;;;;5860507;28;20277;-73
2024/03/23 08:23:55;;;;;;;12.00;5.03;;;;;;;;;;5861174;28;20053;-73
2024/03/23 08:26:45;;;;;;;7.45;3.13;;;;;;;;;;5844011;28;20057;-73
2024/03/23 08:29:35;;;;;;;6.55;2.90;;;;;;;;;;5844177;28;20446;-73
2024/03/23 08:32:25;;;;;;;6.28;2.28;;;;;;;;;;5844208;28;20046;-73
2024/03/23 08:35:14;;;;;;;4.57;2.85;;;;;;;;;;5843966;28;20055;-73
2024/03/23 08:38:04;;;;;;;7.28;3.58;;;;;;;;;;5865001;28;20443;-73
2024/03/23 08:41:06;;;;;;;15.52;2.95;;;;;;;;;;5865344;28;20527;-73
2024/03/23 08:43:55;;;;;;;7.60;3.55;;;;;;;;;;5848350;28;20064;-73
2024/03/23 08:46:45;;;;;;;2.85;2.17;;;;;;;;;;5864486;28;20081;-73
2024/03/23 08:49:35;;;;;;;5.65;3.38;;;;;;;;;;5837234;28;20091;-73
2024/03/23 08:52:28;;;;;;;5.72;2.78;;;;;;;;;;5847970;28;20510;-73
2024/03/23 08:55:18;;;;;;;4.50;2.90;;;;;;;;;;5831650;28;20064;-73
2024/03/23 08:58:08;;;;;;;5.53;2.72;;;;;;;;;;5847859;28;20099;-73
2024/03/23 09:01:16;;;;;;;13.15;4.90;;;;;;;;;;5864822;28;20061;-73
2024/03/23 09:04:05;;;;;;;7.20;2.45;;;;;;;;;;5847519;28;20100;-72
2024/03/23 09:06:55;;;;;;;3.78;2.80;;;;;;;;;;5848330;28;20057;-73
2024/03/23 09:09:45;;;;;;;2.55;2.20;;;;;;;;;;5847594;28;20053;-73
2024/03/23 09:12:35;;;;;;;4.25;2.70;;;;;;;;;;5847709;28;20049;-73
2024/03/23 09:15:24;;;;;;;5.13;3.03;;;;;;;;;;5847599;28;20041;-72
2024/03/23 09:18:14;;;;;;;4.72;2.35;;;;;;;;;;5863813;28;20045;-73
2024/03/23 09:21:15;;;;;;;7.60;2.30;;;;;;;;;;5863647;28;20077;-72
2024/03/23 09:24:05;;;;;;;6.10;3.20;;;;;;;;;;5832365;28;20045;-73
2024/03/23 09:26:54;;;;;;;8.10;2.63;;;;;;;;;;5847842;28;20049;-72
2024/03/23 09:29:45;;;;;;;3.22;2.03;;;;;;;;;;5863760;28;20073;-73
2024/03/23 09:32:34;;;;;;;7.90;3.08;;;;;;;;;;5863629;28;20052;-72
2024/03/23 09:35:24;;;;;;;4.53;3.05;;;;;;;;;;5847156;28;20046;-73
2024/03/23 09:38:14;;;;;;;2.85;2.25;;;;;;;;;;5863679;28;20428;-72
2024/03/23 09:41:09;;;;;;;4.18;3.15;;;;;;;;;;5847148;28;20359;-72
2024/03/23 09:43:59;;;;;;;4.30;2.35;;;;;;;;;;5863782;28;20049;-73
2024/03/23 09:46:49;;;;;;;9.88;3.50;;;;;;;;;;5863247;28;20129;-73
2024/03/23 09:49:40;;;;;;;2.92;2.25;;;;;;;;;;5863125;28;20053;-73
2024/03/23 09:52:30;;;;;;;2.63;1.67;;;;;;;;;;5830517;28;20049;-73
2024/03/23 09:55:20;;;;;;;3.92;2.35;;;;;;;;;;5830544;28;20054;-72
2024/03/23 09:58:15;;;;;;;3.35;2.15;;;;;;;;;;5820437;28;20099;-72
2024/03/23 10:01:07;;;;;;;4.30;2.67;;;;;;;;;;5846598;28;20561;-73
2024/03/23 10:03:57;;;;;;;4.03;2.55;;;;;;;;;;5863649;28;20053;-73
2024/03/23 10:06:46;;;;;;;2.88;1.90;;;;;;;;;;5829917;28;20588;-72
2024/03/23 10:09:36;;;;;;;2.75;2.38;;;;;;;;;;5846077;28;20060;-72
2024/03/23 10:12:26;;;;;;;3.00;1.88;;;;;;;;;;5830058;28;20119;-72
2024/03/23 10:15:21;;;;;;;9.75;2.78;;;;;;;;;;5846078;28;20057;-72
2024/03/23 10:18:21;;;;;;;10.38;3.35;;;;;;;;;;5830141;28;20053;-73
2024/03/23 10:21:11;;;;;;;4.53;2.10;;;;;;;;;;5862332;28;20096;-73
2024/03/23 10:24:09;;;;;;;3.10;1.90;;;;;;;;;;5862564;28;20438;-73
2024/03/23 10:26:59;;;;;;;3.88;1.98;;;;;;;;;;5846442;28;20053;-73
2024/03/23 10:29:49;;;;;;;1.77;1.50;;;;;;;;;;5862204;28;20068;-73
2024/03/23 10:32:39;;;;;;;7.38;2.25;;;;;;;;;;5862517;28;20049;-73
2024/03/23 10:35:29;;;;;;;5.18;2.22;;;;;;;;;;5829612;28;20466;-72
2024/03/23 10:38:19;;;;;;;4.35;2.10;;;;;;;;;;5845852;28;20491;-73
2024/03/23 10:41:10;;;;;;;4.20;2.20;;;;;;;;;;5829438;28;20049;-70
2024/03/23 10:44:02;;;;;;;2.38;1.88;;;;;;;;;;5846147;28;20045;-70
2024/03/23 10:46:58;;;;;;;23.48;2.00;;;;;;;;;;5845325;28;20053;-70
2024/03/23 10:49:49;;;;;;;4.80;1.60;;;;;;;;;;5861874;28;20053;-70
2024/03/23 10:52:45;;;;;;;1.67;1.20;;;;;;;;;;5845164;28;20840;-70
2024/03/23 10:55:39;;;;;;;2.17;1.58;;;;;;;;;;5845286;28;20052;-73
2024/03/23 10:58:46;;;;;;;2.75;1.50;;;;;;;;;;5861404;28;20053;-72
2024/03/23 11:01:54;;;;;;;6.68;2.22;;;;;;;;;;5829691;28;20072;-73
2024/03/23 11:04:46;;;;;;;6.20;2.78;;;;;;;;;;5861298;28;20049;-73
2024/03/23 11:07:36;;;;;;;2.45;1.48;;;;;;;;;;5845108;28;20060;-72
2024/03/23 11:10:30;;;;;;;1.65;1.05;;;;;;;;;;5844689;28;20080;-73
2024/03/23 11:13:24;;;;;;;1.90;1.15;;;;;;;;;;5861334;28;20095;-73
2024/03/23 11:16:36;;;;;;;5.13;1.40;;;;;;;;;;5861215;28;20057;-73
2024/03/23 11:19:38;;;;;;;3.88;1.58;;;;;;;;;;5861180;28;20846;-72
2024/03/23 11:22:47;;;;;;;1.33;1.05;;;;;;;;;;5844824;28;20095;-73
2024/03/23 11:25:37;;;;;;;5.28;2.03;;;;;;;;;;5844668;28;20114;-73
2024/03/23 11:28:27;;;;;;;2.83;1.08;;;;;;;;;;5861010;28;20076;-73
2024/03/23 11:31:16;;;;;;;3.38;1.33;;;;;;;;;;5860863;28;20106;-70
2024/03/23 11:34:06;;;;;;;1.70;1.08;;;;;;;;;;5861173;28;20518;-70
2024/03/23 11:37:05;;;;;;;1.85;1.15;;;;;;;;;;5845079;28;20132;-72
2024/03/23 11:39:54;;;;;;;2.35;1.40;;;;;;;;;;5861441;28;20053;-71
2024/03/23 11:42:44;;;;;;;1.42;0.95;;;;;;;;;;5844656;28;20423;-70
2024/03/23 11:45:36;;;;;;;9.00;1.50;;;;;;;;;;5828346;28;20102;-70
2024/03/23 11:48:27;;;;;;;2.60;0.98;;;;;;;;;;5844386;28;20046;-70
2024/03/23 11:51:17;;;;;;;9.57;1.90;;;;;;;;;;5860645;28;20054;-70
2024/03/23 11:54:10;;;;;;;1.13;0.95;;;;;;;;;;5860512;28;20050;-70
2024/03/23 11:57:08;;;;;;;4.13;1.30;;;;;;;;;;5861429;28;20045;-71
2024/03/23 11:59:57;;;;;;;6.30;1.38;;;;;;;;;;5844730;28;20554;-71
2024/03/23 12:02:47;;;;;;;3.22;1.55;;;;;;;;;;5844009;28;20111;-70
2024/03/23 12:05:38;;;;;;;2.40;1.35;;;;;;;;;;5860517;28;20049;-71
2024/03/23 12:08:35;;;;;;;7.35;1.95;;;;;;;;;;5860599;28;20046;-70
2024/03/23 12:11:26;;;;;;;3.75;1.15;;;;;;;;;;5862226;28;20045;-68
2024/03/23 12:14:15;;;;;;;1.95;1.10;;;;;;;;;;5865174;28;20422;-70
2024/03/23 12:17:13;;;;;;;2.30;1.08;;;;;;;;;;5848545;28;20053;-70
2024/03/23 12:20:04;;;;;;;9.27;0.83;;;;;;;;;;5864803;28;20135;-70
2024/03/23 12:23:09;;;;;;;1.42;0.73;;;;;;;;;;5865369;28;20533;-70
2024/03/23 12:25:59;;;;;;;5.10;1.55;;;;;;;;;;5864983;28;20053;-70
2024/03/23 12:28:48;;;;;;;5.20;1.02;;;;;;;;;;5864766;28;20045;-70
2024/03/23 12:31:38;;;;;;;18.13;1.80;;;;;;;;;;5848138;28;20046;-70
2024/03/23 12:34:30;;;;;;;7.30;1.67;;;;;;;;;;5848287;28;20056;-70
2024/03/23 12:37:19;;;;;;;21.92;2.67;;;;;;;;;;5864493;28;20045;-71
2024/03/23 12:40:10;;;;;;;16.52;1.52;;;;;;;;;;5848250;28;20048;-71
2024/03/23 12:42:59;;;;;;;6.22;1.13;;;;;;;;;;5848614;28;20068;-71
2024/03/23 12:45:50;;;;;;;1.13;0.98;;;;;;;;;;5847831;28;20045;-71
2024/03/23 12:48:41;;;;;;;13.38;0.93;;;;;;;;;;5864217;28;20491;-71
2024/03/23 12:51:32;;;;;;;0.82;0.70;;;;;;;;;;5847602;28;20076;-73
2024/03/23 12:54:23;;;;;;;4.82;1.67;;;;;;;;;;5864080;28;20064;-73
2024/03/23 12:57:12;;;;;;;3.28;0.75;;;;;;;;;;5864233;28;20410;-73
2024/03/23 13:00:04;;;;;;;2.65;1.58;;;;;;;;;;5864196;28;20077;-70
2024/03/23 13:02:53;;;;;;;4.60;1.30;;;;;;;;;;5848236;28;20044;-71
2024/03/23 13:05:43;;;;;;;1.98;0.85;;;;;;;;;;5847451;28;20132;-72
2024/03/23 13:08:33;;;;;;;1.08;0.65;;;;;;;;;;5831608;28;20042;-71
2024/03/23 13:11:23;;;;;;;4.72;0.80;;;;;;;;;;5847423;28;20503;-71
2024/03/23 13:14:16;;;;;;;3.67;1.50;;;;;;;;;;5831246;28;20511;-71
2024/03/23 13:17:07;;;;;;;2.45;0.75;;;;;;;;;;5863782;28;20103;-70
2024/03/23 13:19:56;;;;;;;9.20;0.82;;;;;;;;;;5847353;28;20045;-70
2024/03/23 13:22:47;;;;;;;8.57;1.10;;;;;;;;;;5846475;28;20037;-71
2024/03/23 13:25:37;;;;;;;6.93;1.02;;;;;;;;;;5846974;28;20045;-70
2024/03/23 13:28:26;;;;;;;0.73;0.60;;;;;;;;;;5863420;28;20712;-70
2024/03/23 13:31:16;;;;;;;1.58;1.13;;;;;;;;;;5863346;28;20052;-70
2024/03/23 13:34:06;;;;;;;6.88;2.38;;;;;;;;;;5847049;28;20057;-70
2024/03/23 13:36:58;;;;;;;3.65;1.65;;;;;;;;;;5863736;28;20433;-70
2024/03/23 13:39:48;;;;;;;2.17;1.02;;;;;;;;;;5830180;28;20051;-70
2024/03/23 13:42:38;;;;;;;2.88;1.23;;;;;;;;;;5863338;28;20045;-71
2024/03/23 13:45:28;;;;;;;1.60;1.10;;;;;;;;;;5846301;28;20414;-71
2024/03/23 13:48:26;;;;;;;1.88;1.00;;;;;;;;;;5862784;28;20061;-70
2024/03/23 13:51:24;;;;;;;7.72;4.65;;;;;;;;;;5862795;28;20068;-70
2024/03/23 13:54:14;;;;;;;4.78;3.00;;;;;;;;;;5863125;28;20037;-70
2024/03/23 13:57:05;;;;;;;41.05;18.33;;;;;;;;;;5846515;28;20050;-69
2024/03/23 13:59:54;;;;;;;17.42;8.32;;;;;;;;;;5846907;28;20060;-70
2024/03/23 14:02:44;;;;;;;19.15;10.13;;;;;;;;;;5829847;28;20037;-70
2024/03/23 14:05:34;;;;;;;14.48;6.30;;;;;;;;;;5846168;28;20046;-73
2024/03/23 14:08:24;;;;;;;0.40;0.40;;;;;;;;;;5862932;28;20045;-72
2024/03/23 14:11:14;;;;;;;1.55;0.80;;;;;;;;;;5846357;28;20498;-72
2024/03/23 14:14:04;;;;;;;0.85;0.65;;;;;;;;;;5862868;28;20104;-71
2024/03/23 14:18:33;;;;;;;1.70;0.63;;;;;;;;;;5862361;27;1323587;-70
2024/03/23 14:21:23;;;;;;;0.80;0.60;;;;;;;;;;5904311;28;20279;-70
2024/03/23 14:24:13;;;;;;;0.43;0.40;;;;;;;;;;5904320;28;20060;-70
2024/03/23 14:27:05;;;;;;;0.45;0.45;;;;;;;;;;5904380;28;20129;-70
2024/03/23 14:29:56;;;;;;;1.15;0.88;;;;;;;;;;5904598;28;20094;-70
2024/03/23 14:32:46;;;;;;;5.43;0.82;;;;;;;;;;5904296;28;20043;-69
2024/03/23 14:35:36;;;;;;;1.63;1.25;;;;;;;;;;5904174;28;20040;-70
2024/03/23 14:38:26;;;;;;;5.00;1.23;;;;;;;;;;5903999;28;20090;-70
2024/03/23 14:41:16;;;;;;;8.27;0.75;;;;;;;;;;5903898;28;20053;-71
2024/03/23 14:44:05;;;;;;;1.02;0.60;;;;;;;;;;5903914;28;20078;-72
2024/03/23 14:46:55;;;;;;;0.50;0.50;;;;;;;;;;5904127;28;20445;-73
2024/03/23 14:49:50;;;;;;;1.35;0.52;;;;;;;;;;5870581;28;20037;-72
2024/03/23 14:52:39;;;;;;;3.85;0.77;;;;;;;;;;5903632;28;20414;-72
2024/03/23 14:55:30;;;;;;;0.55;0.40;;;;;;;;;;5887018;28;20414;-72
2024/03/23 14:58:20;;;;;;;0.57;0.57;;;;;;;;;;5903385;28;20056;-72
2024/03/23 15:01:10;;;;;;;2.50;1.30;;;;;;;;;;5887009;28;20072;-72
2024/03/23 15:04:00;;;;;;;0.68;0.55;;;;;;;;;;5903287;28;20048;-72
2024/03/23 15:06:50;;;;;;;1.17;0.80;;;;;;;;;;5926969;28;20505;-72
2024/03/23 15:09:40;;;;;;;1.90;1.13;;;;;;;;;;5926698;28;20447;-73
2024/03/23 15:12:32;;;;;;;4.78;3.55;;;;;;;;;;5926514;28;20048;-73
2024/03/23 15:15:22;;;;;;;8.18;4.90;;;;;;;;;;5926736;28;20048;-73
2024/03/23 15:18:15;;;;;;;4.25;2.70;;;;;;;;;;5926350;28;20098;-73
2024/03/23 15:21:07;;;;;;;2.15;1.90;;;;;;;;;;5926323;28;20109;-73
2024/03/23 15:23:57;;;;;;;0.77;0.60;;;;;;;;;;5926559;28;20055;-73
2024/03/23 15:26:49;;;;;;;0.88;0.75;;;;;;;;;;5926184;28;20047;-73
2024/03/23 15:29:39;;;;;;;0.70;0.70;;;;;;;;;;5912295;28;20102;-73
2024/03/23 15:32:29;;;;;;;0.75;0.63;;;;;;;;;;5910488;28;20436;-73
2024/03/23 15:35:22;;;;;;;1.33;1.23;;;;;;;;;;5910385;28;20055;-73
2024/03/23 15:38:12;;;;;;;1.42;1.33;;;;;;;;;;5893993;28;20051;-73
2024/03/23 15:41:03;;;;;;;3.25;2.00;;;;;;;;;;5910437;28;20060;-73
2024/03/23 15:43:53;;;;;;;2.90;2.55;;;;;;;;;;5910812;28;20049;-73
2024/03/23 15:46:43;;;;;;;4.35;2.40;;;;;;;;;;5893712;28;20098;-73
2024/03/23 15:49:32;;;;;;;3.92;2.63;;;;;;;;;;5893595;28;20044;-73
2024/03/23 15:52:22;;;;;;;8.60;5.43;;;;;;;;;;5910048;28;20045;-73
2024/03/23 15:55:12;;;;;;;3.78;3.13;;;;;;;;;;5893701;28;20045;-72
2024/03/23 15:58:02;;;;;;;10.15;5.95;;;;;;;;;;5909817;28;20051;-73
2024/03/23 16:00:56;;;;;;;10.23;6.82;;;;;;;;;;5910278;28;20047;-73
2024/03/23 16:03:46;;;;;;;12.23;6.47;;;;;;;;;;5909996;28;20071;-73
2024/03/23 16:06:36;;;;;;;16.10;8.85;;;;;;;;;;5909790;28;20506;-73
2024/03/23 16:09:28;;;;;;;15.75;10.40;;;;;;;;;;5909854;28;20048;-73
2024/03/23 16:12:18;;;;;;;11.05;7.13;;;;;;;;;;5909912;28;20114;-73
2024/03/23 16:15:09;;;;;;;3.47;2.30;;;;;;;;;;5909815;28;20049;-73
2024/03/23 16:17:59;;;;;;;5.32;4.82;;;;;;;;;;5909810;28;20043;-73
2024/03/23 16:21:01;;;;;;;9.68;3.67;;;;;;;;;;5909367;28;20505;-73
2024/03/23 16:23:50;;;;;;;6.80;5.47;;;;;;;;;;5909680;28;20044;-73
2024/03/23 16:26:40;;;;;;;38.75;15.93;;;;;;;;;;5909399;28;20056;-73
2024/03/23 16:29:30;;;;;;;10.25;7.25;;;;;;;;;;5909252;28;20045;-74
2024/03/23 16:32:20;;;;;;;4.88;3.92;;;;;;;;;;5892539;28;20489;-73
2024/03/23 16:35:12;;;;;;;4.65;3.53;;;;;;;;;;5909335;28;20048;-72
2024/03/23 16:38:02;;;;;;;9.00;5.60;;;;;;;;;;5908859;28;20055;-73
2024/03/23 16:41:04;;;;;;;5.55;3.75;;;;;;;;;;5908529;28;20068;-73
2024/03/23 16:43:54;;;;;;;4.88;2.55;;;;;;;;;;5909235;28;20422;-72
2024/03/23 16:46:44;;;;;;;6.03;2.55;;;;;;;;;;5908991;28;20049;-73
2024/03/23 16:49:34;;;;;;;11.27;3.22;;;;;;;;;;5908947;28;20548;-72
2024/03/23 16:52:23;;;;;;;6.10;2.17;;;;;;;;;;5908910;28;20040;-71
2024/03/23 16:55:13;;;;;;;8.32;3.22;;;;;;;;;;5909067;28;20052;-71
2024/03/23 16:58:04;;;;;;;4.25;2.97;;;;;;;;;;5908761;28;20084;-72
2024/03/23 17:00:56;;;;;;;9.68;5.00;;;;;;;;;;5909289;28;20040;-70